createdAt,value
2018-07-09T00:01:06.921Z,17.73
2018-07-09T00:03:36.057Z,17.68
2018-07-09T00:06:05.110Z,17.66
2018-07-09T00:08:34.289Z,17.44
2018-07-09T00:11:06.345Z,17.43
2018-07-09T00:13:36.438Z,17.42
2018-07-09T00:16:05.568Z,17.29
2018-07-09T00:18:34.650Z,17.34
2018-07-09T00:21:03.710Z,17.31
2018-07-09T00:23:32.877Z,17.29
2018-07-09T00:26:01.925Z,17.34
2018-07-09T00:28:31.021Z,17.20
2018-07-09T00:31:00.104Z,17.13
2018-07-09T00:33:29.285Z,17.19
2018-07-09T00:35:58.929Z,17.12
2018-07-09T00:38:28.033Z,17.04
2018-07-09T00:40:57.173Z,16.96
2018-07-09T00:43:26.645Z,16.90
2018-07-09T00:45:55.731Z,16.87
2018-07-09T00:48:24.929Z,16.94
2018-07-09T00:50:54.063Z,16.83
2018-07-09T00:53:23.119Z,16.59
2018-07-09T00:55:52.223Z,16.80
2018-07-09T00:58:21.386Z,16.97
2018-07-09T01:00:50.582Z,16.88
2018-07-09T01:03:19.660Z,16.98
2018-07-09T01:05:48.709Z,17.11
2018-07-09T01:08:17.901Z,17.08
2018-07-09T01:10:58.507Z,17.11
2018-07-09T01:13:38.943Z,17.09
2018-07-09T01:16:08.574Z,17.11
2018-07-09T01:18:37.791Z,17.06
2018-07-09T01:21:09.832Z,17.08
2018-07-09T01:23:39.326Z,16.98
2018-07-09T01:26:09.044Z,16.91
2018-07-09T01:28:38.988Z,16.87
2018-07-09T01:31:08.119Z,16.89
2018-07-09T01:33:37.264Z,16.96
2018-07-09T01:36:06.428Z,17.10
2018-07-09T01:38:35.451Z,17.03
2018-07-09T01:41:04.526Z,16.81
2018-07-09T01:43:33.571Z,16.69
2018-07-09T01:46:02.694Z,16.60
2018-07-09T01:48:32.079Z,16.58
2018-07-09T01:51:01.141Z,16.58
2018-07-09T01:53:30.388Z,16.53
2018-07-09T01:55:59.446Z,16.55
2018-07-09T01:58:28.506Z,16.60
2018-07-09T02:00:57.633Z,16.45
2018-07-09T02:03:26.690Z,16.36
2018-07-09T02:05:55.745Z,16.39
2018-07-09T02:08:24.809Z,16.46
2018-07-09T02:10:53.887Z,16.43
2018-07-09T02:13:22.920Z,16.23
2018-07-09T02:15:52.017Z,16.08
2018-07-09T02:18:21.073Z,16.08
2018-07-09T02:20:50.153Z,16.07
2018-07-09T02:23:19.181Z,16.14
2018-07-09T02:25:48.261Z,16.35
2018-07-09T02:28:17.361Z,16.52
2018-07-09T02:30:46.619Z,16.56
2018-07-09T02:33:15.709Z,16.46
2018-07-09T02:35:45.093Z,16.41
2018-07-09T02:38:14.265Z,16.25
2018-07-09T02:40:43.313Z,16.21
2018-07-09T02:43:12.361Z,16.12
2018-07-09T02:45:41.497Z,16.05
2018-07-09T02:48:10.567Z,16.20
2018-07-09T02:50:39.618Z,16.06
2018-07-09T02:53:08.707Z,16.01
2018-07-09T02:55:37.841Z,16.06
2018-07-09T02:58:06.932Z,16.02
2018-07-09T03:00:36.100Z,16.08
2018-07-09T03:03:05.178Z,15.95
2018-07-09T03:05:34.384Z,15.92
2018-07-09T03:08:03.453Z,15.87
2018-07-09T03:10:32.490Z,15.80
2018-07-09T03:13:01.561Z,15.82
2018-07-09T03:15:30.607Z,15.88
2018-07-09T03:17:59.666Z,15.95
2018-07-09T03:20:28.849Z,15.91
2018-07-09T03:22:57.984Z,15.90
2018-07-09T03:25:27.036Z,15.83
2018-07-09T03:27:56.336Z,15.83
2018-07-09T03:30:25.405Z,15.69
2018-07-09T03:32:54.556Z,15.78
2018-07-09T03:35:23.668Z,15.87
2018-07-09T03:37:52.716Z,15.80
2018-07-09T03:40:21.810Z,15.68
2018-07-09T03:42:50.862Z,15.75
2018-07-09T03:45:19.959Z,15.78
2018-07-09T03:47:48.998Z,15.80
2018-07-09T03:50:18.192Z,15.84
2018-07-09T03:52:47.246Z,15.86
2018-07-09T03:55:16.401Z,15.80
2018-07-09T03:57:45.673Z,15.82
2018-07-09T04:00:14.744Z,15.90
2018-07-09T04:02:43.811Z,15.94
2018-07-09T04:05:12.868Z,15.93
2018-07-09T04:07:41.925Z,16.01
2018-07-09T04:10:11.009Z,16.05
2018-07-09T04:12:40.062Z,16.13
2018-07-09T04:15:09.168Z,16.17
2018-07-09T04:17:38.299Z,16.15
2018-07-09T04:20:07.424Z,16.21
2018-07-09T04:22:36.560Z,16.18
2018-07-09T04:25:05.836Z,16.22
2018-07-09T04:27:34.946Z,16.23
2018-07-09T04:30:04.316Z,16.16
2018-07-09T04:32:33.454Z,16.23
2018-07-09T04:35:02.556Z,16.25
2018-07-09T04:37:31.748Z,16.25
2018-07-09T04:40:00.826Z,16.24
2018-07-09T04:42:29.921Z,16.26
2018-07-09T04:44:59.036Z,16.30
2018-07-09T04:47:28.130Z,16.45
2018-07-09T04:49:57.195Z,16.48
2018-07-09T04:52:26.288Z,16.58
2018-07-09T04:54:55.966Z,16.60
2018-07-09T04:57:25.067Z,16.60
2018-07-09T04:59:54.100Z,16.68
2018-07-09T05:02:23.234Z,16.69
2018-07-09T05:04:52.498Z,16.66
2018-07-09T05:07:21.634Z,16.77
2018-07-09T05:09:50.748Z,16.86
2018-07-09T05:12:19.866Z,16.94
2018-07-09T05:14:49.090Z,16.96
2018-07-09T05:17:18.182Z,17.00
2018-07-09T05:19:47.290Z,17.06
2018-07-09T05:22:16.398Z,17.13
2018-07-09T05:24:45.445Z,17.14
2018-07-09T05:27:14.549Z,17.19
2018-07-09T05:29:43.636Z,17.27
2018-07-09T05:32:12.702Z,17.45
2018-07-09T05:34:41.754Z,17.63
2018-07-09T05:37:10.856Z,17.82
2018-07-09T05:39:40.597Z,17.92
2018-07-09T05:42:10.247Z,18.05
2018-07-09T05:44:39.561Z,18.22
2018-07-09T05:47:09.283Z,18.35
2018-07-09T05:49:38.491Z,18.46
2018-07-09T05:52:07.533Z,18.57
2018-07-09T05:54:36.788Z,18.67
2018-07-09T05:57:05.884Z,18.78
2018-07-09T05:59:34.952Z,18.83
2018-07-09T06:02:04.060Z,18.84
2018-07-09T06:04:33.169Z,18.88
2018-07-09T06:07:02.332Z,18.86
2018-07-09T06:09:31.562Z,18.87
2018-07-09T06:12:00.877Z,18.86
2018-07-09T06:14:30.082Z,18.98
2018-07-09T06:16:59.214Z,19.09
2018-07-09T06:19:28.406Z,19.21
2018-07-09T06:21:57.497Z,19.26
2018-07-09T06:24:26.637Z,19.28
2018-07-09T06:26:55.703Z,19.35
2018-07-09T06:29:25.005Z,19.40
2018-07-09T06:31:54.065Z,19.41
2018-07-09T06:34:23.540Z,19.52
2018-07-09T06:36:52.605Z,19.52
2018-07-09T06:39:21.693Z,19.55
2018-07-09T06:41:51.129Z,19.61
2018-07-09T06:44:20.321Z,19.70
2018-07-09T06:46:49.401Z,19.78
2018-07-09T06:49:18.516Z,19.79
2018-07-09T06:51:47.573Z,19.84
2018-07-09T06:54:16.802Z,19.88
2018-07-09T06:56:45.980Z,19.90
2018-07-09T06:59:15.116Z,19.95
2018-07-09T07:01:44.180Z,19.97
2018-07-09T07:04:13.469Z,20.03
2018-07-09T07:06:42.518Z,20.03
2018-07-09T07:09:11.649Z,20.03
2018-07-09T07:11:40.680Z,20.09
2018-07-09T07:14:09.741Z,20.10
2018-07-09T07:16:38.864Z,20.15
2018-07-09T07:19:07.946Z,20.19
2018-07-09T07:21:37.156Z,20.26
2018-07-09T07:24:06.665Z,20.35
2018-07-09T07:26:35.848Z,20.37
2018-07-09T07:29:04.940Z,20.41
2018-07-09T07:31:34.717Z,20.48
2018-07-09T07:34:03.818Z,20.49
2018-07-09T07:36:32.940Z,20.65
2018-07-09T07:39:01.998Z,20.79
2018-07-09T07:41:31.224Z,20.86
2018-07-09T07:44:00.724Z,20.98
2018-07-09T07:46:29.815Z,21.01
2018-07-09T07:48:58.929Z,20.92
2018-07-09T07:51:28.050Z,20.97
2018-07-09T07:53:57.102Z,21.05
2018-07-09T07:56:26.210Z,21.07
2018-07-09T07:58:55.288Z,21.11
2018-07-09T08:01:24.427Z,21.06
2018-07-09T08:03:53.498Z,21.18
2018-07-09T08:06:22.684Z,21.37
2018-07-09T08:08:51.749Z,21.45
2018-07-09T08:11:20.917Z,21.58
2018-07-09T08:13:50.285Z,21.60
2018-07-09T08:16:19.377Z,21.53
2018-07-09T08:18:48.470Z,21.42
2018-07-09T08:21:17.689Z,21.47
2018-07-09T08:23:46.776Z,21.48
2018-07-09T08:26:15.846Z,21.44
2018-07-09T08:28:45.017Z,21.41
2018-07-09T08:31:14.226Z,21.54
2018-07-09T08:33:43.244Z,21.76
2018-07-09T08:36:12.370Z,21.65
2018-07-09T08:38:41.444Z,21.63
2018-07-09T08:41:10.552Z,21.68
2018-07-09T08:43:39.656Z,21.82
2018-07-09T08:46:08.745Z,21.91
2018-07-09T08:48:37.786Z,21.82
2018-07-09T08:51:06.884Z,21.93
2018-07-09T08:53:36.028Z,21.93
2018-07-09T08:56:05.256Z,21.96
2018-07-09T08:58:34.302Z,22.15
2018-07-09T09:01:03.385Z,22.32
2018-07-09T09:03:32.529Z,22.29
2018-07-09T09:06:01.610Z,22.44
2018-07-09T09:08:30.684Z,22.29
2018-07-09T09:10:59.782Z,22.39
2018-07-09T09:14:32.402Z,22.48
2018-07-09T09:17:03.310Z,22.52
2018-07-09T09:19:33.513Z,22.48
2018-07-09T09:22:02.590Z,22.46
2018-07-09T09:24:31.597Z,22.76
2018-07-09T09:27:00.656Z,22.78
2018-07-09T09:29:29.771Z,22.80
2018-07-09T09:31:58.954Z,22.99
2018-07-09T09:34:28.017Z,23.01
2018-07-09T09:36:57.164Z,23.02
2018-07-09T09:39:26.202Z,22.89
2018-07-09T09:41:55.264Z,22.79
2018-07-09T09:44:24.434Z,22.79
2018-07-09T09:46:54.554Z,22.90
2018-07-09T09:49:23.726Z,22.75
2018-07-09T09:51:53.724Z,23.05
2018-07-09T09:54:22.786Z,23.11
2018-07-09T09:56:51.832Z,23.01
2018-07-09T09:59:21.074Z,23.03
2018-07-09T10:01:50.277Z,23.00
2018-07-09T10:04:19.357Z,23.27
2018-07-09T10:06:48.572Z,23.15
2018-07-09T10:09:17.629Z,23.15
2018-07-09T10:11:46.971Z,23.20
2018-07-09T10:14:16.057Z,23.44
2018-07-09T10:16:45.456Z,23.60
2018-07-09T10:19:14.508Z,23.76
2018-07-09T10:21:43.637Z,23.96
2018-07-09T10:24:12.857Z,24.10
2018-07-09T10:26:42.317Z,23.93
2018-07-09T10:29:11.501Z,24.01
2018-07-09T10:31:40.698Z,24.17
2018-07-09T10:34:09.753Z,24.40
2018-07-09T10:36:38.997Z,24.51
2018-07-09T10:39:08.050Z,24.77
2018-07-09T10:41:37.142Z,24.82
2018-07-09T10:44:06.249Z,24.66
2018-07-09T10:46:35.419Z,24.83
2018-07-09T10:49:04.529Z,25.04
2018-07-09T10:51:33.597Z,24.80
2018-07-09T10:54:02.681Z,24.98
2018-07-09T10:56:31.836Z,25.16
2018-07-09T10:59:00.995Z,24.97
2018-07-09T11:01:30.336Z,24.87
2018-07-09T11:03:59.394Z,24.87
2018-07-09T11:06:28.521Z,24.77
2018-07-09T11:08:57.548Z,24.74
2018-07-09T11:11:26.624Z,24.55
2018-07-09T11:13:55.762Z,24.44
2018-07-09T11:16:25.059Z,24.49
2018-07-09T11:18:54.118Z,24.36
2018-07-09T11:21:23.202Z,24.33
2018-07-09T11:23:52.349Z,24.47
2018-07-09T11:26:21.472Z,24.76
2018-07-09T11:28:50.615Z,25.06
2018-07-09T11:31:19.770Z,25.05
2018-07-09T11:33:48.889Z,25.23
2018-07-09T11:36:18.067Z,25.58
2018-07-09T11:38:47.205Z,25.85
2018-07-09T11:41:16.464Z,25.95
2018-07-09T11:43:45.653Z,25.90
2018-07-09T11:46:14.842Z,26.18
2018-07-09T11:48:44.083Z,26.46
2018-07-09T11:51:13.248Z,26.74
2018-07-09T11:53:42.406Z,26.96
2018-07-09T11:56:11.496Z,27.20
2018-07-09T11:58:40.728Z,27.47
2018-07-09T12:01:09.868Z,28.09
2018-07-09T12:03:39.113Z,28.12
2018-07-09T12:06:08.184Z,28.15
2018-07-09T12:08:37.394Z,27.58
2018-07-09T12:11:07.065Z,27.15
2018-07-09T12:13:36.177Z,27.31
2018-07-09T12:16:05.944Z,27.02
2018-07-09T12:18:34.995Z,26.63
2018-07-09T12:21:04.649Z,26.42
2018-07-09T12:23:33.917Z,26.46
2018-07-09T12:26:03.005Z,26.69
2018-07-09T12:28:32.156Z,26.53
2018-07-09T12:31:01.293Z,26.87
2018-07-09T12:33:30.553Z,27.13
2018-07-09T12:35:59.685Z,27.62
2018-07-09T12:38:29.017Z,28.31
2018-07-09T12:40:58.070Z,28.79
2018-07-09T12:43:27.384Z,29.22
2018-07-09T12:45:56.431Z,29.37
2018-07-09T12:48:25.586Z,29.83
2018-07-09T12:50:54.773Z,29.41
2018-07-09T12:53:24.525Z,29.13
2018-07-09T12:55:53.685Z,29.06
2018-07-09T12:58:22.919Z,29.39
2018-07-09T13:00:51.950Z,28.57
2018-07-09T13:03:21.452Z,27.68
2018-07-09T13:05:50.501Z,27.34
2018-07-09T13:08:19.609Z,27.21
2018-07-09T13:10:48.671Z,27.65
2018-07-09T13:13:17.859Z,28.00
2018-07-09T13:15:46.957Z,28.26
2018-07-09T13:18:16.151Z,28.16
2018-07-09T13:20:45.232Z,28.25
2018-07-09T13:23:14.570Z,28.38
2018-07-09T13:25:43.622Z,28.45
2018-07-09T13:28:12.909Z,29.47
2018-07-09T13:30:41.972Z,30.03
2018-07-09T13:33:11.080Z,30.53
2018-07-09T13:35:40.134Z,31.28
2018-07-09T13:38:09.245Z,32.36
2018-07-09T13:40:38.766Z,32.71
2018-07-09T13:43:07.924Z,32.76
2018-07-09T13:45:37.017Z,32.97
2018-07-09T13:48:06.157Z,33.26
2018-07-09T13:50:35.611Z,33.34
2018-07-09T13:53:04.823Z,33.98
2018-07-09T13:55:34.005Z,33.63
2018-07-09T13:58:03.113Z,33.13
2018-07-09T14:00:32.241Z,34.01
2018-07-09T14:03:01.409Z,33.50
2018-07-09T14:05:30.499Z,32.33
2018-07-09T14:07:59.550Z,31.18
2018-07-09T14:10:28.663Z,30.30
2018-07-09T14:12:57.735Z,29.89
2018-07-09T14:15:26.875Z,29.32
2018-07-09T14:17:55.917Z,28.83
2018-07-09T14:20:34.067Z,28.89
2018-07-09T14:23:03.628Z,30.44
2018-07-09T14:25:32.724Z,31.77
2018-07-09T14:28:01.888Z,32.75
2018-07-09T14:30:30.988Z,33.08
2018-07-09T14:33:00.338Z,33.42
2018-07-09T14:35:29.474Z,33.04
2018-07-09T14:37:58.572Z,33.33
2018-07-09T14:40:27.908Z,33.88
2018-07-09T14:42:57.044Z,32.85
2018-07-09T14:45:26.197Z,31.46
2018-07-09T14:47:55.359Z,30.66
2018-07-09T14:50:24.757Z,31.13
2018-07-09T14:52:53.941Z,32.00
2018-07-09T14:55:23.069Z,33.26
2018-07-09T14:57:52.173Z,33.80
2018-07-09T15:00:21.237Z,33.92
2018-07-09T15:02:50.433Z,33.74
2018-07-09T15:05:19.629Z,33.73
2018-07-09T15:07:48.831Z,33.73
2018-07-09T15:10:17.912Z,33.97
2018-07-09T15:12:47.124Z,33.73
2018-07-09T15:15:16.215Z,33.95
2018-07-09T15:17:45.359Z,34.16
2018-07-09T15:20:14.509Z,33.82
2018-07-09T15:22:43.663Z,32.48
2018-07-09T15:25:12.805Z,30.79
2018-07-09T15:27:41.884Z,30.94
2018-07-09T15:30:11.002Z,30.95
2018-07-09T15:32:40.580Z,30.04
2018-07-09T15:35:10.109Z,30.38
2018-07-09T15:37:39.204Z,31.71
2018-07-09T15:40:08.452Z,32.36
2018-07-09T15:42:37.563Z,33.00
2018-07-09T15:45:06.968Z,32.44
2018-07-09T15:47:36.107Z,33.00
2018-07-09T15:50:05.238Z,33.59
2018-07-09T15:52:34.354Z,34.01
2018-07-09T15:55:03.396Z,31.89
2018-07-09T15:57:32.556Z,32.25
2018-07-09T16:00:01.691Z,31.71
2018-07-09T16:02:30.837Z,30.83
2018-07-09T16:04:59.929Z,31.34
2018-07-09T16:07:29.061Z,31.75
2018-07-09T16:09:58.145Z,32.46
2018-07-09T16:12:27.365Z,32.24
2018-07-09T16:14:56.445Z,32.83
2018-07-09T16:17:25.589Z,32.82
2018-07-09T16:19:54.675Z,32.58
2018-07-09T16:22:23.871Z,32.33
2018-07-09T16:24:53.049Z,32.28
2018-07-09T16:27:22.125Z,32.41
2018-07-09T16:29:51.209Z,32.27
2018-07-09T16:32:20.467Z,32.47
2018-07-09T16:34:49.612Z,32.52
2018-07-09T16:37:18.686Z,32.73
2018-07-09T16:39:47.805Z,32.52
2018-07-09T16:42:16.948Z,32.48
2018-07-09T16:44:46.200Z,32.53
2018-07-09T16:47:15.294Z,32.68
2018-07-09T16:49:44.394Z,32.48
2018-07-09T16:52:13.500Z,32.62
2018-07-09T16:54:42.686Z,32.36
2018-07-09T16:57:11.768Z,32.43
2018-07-09T16:59:40.888Z,32.23
2018-07-09T17:02:09.983Z,32.11
2018-07-09T17:04:39.326Z,31.98
2018-07-09T17:07:08.570Z,31.63
2018-07-09T17:09:37.773Z,31.61
2018-07-09T17:12:06.903Z,31.77
2018-07-09T17:14:35.973Z,31.71
2018-07-09T17:17:05.304Z,31.41
2018-07-09T17:19:34.469Z,31.19
2018-07-09T17:22:03.548Z,31.03
2018-07-09T17:24:32.762Z,31.24
2018-07-09T17:27:01.975Z,31.03
2018-07-09T17:29:31.142Z,30.62
2018-07-09T17:32:00.168Z,30.17
2018-07-09T17:34:29.346Z,30.11
2018-07-09T17:36:58.418Z,29.81
2018-07-09T17:39:27.492Z,29.46
2018-07-09T17:41:57.150Z,28.90
2018-07-09T17:44:26.431Z,28.36
2018-07-09T17:46:55.704Z,28.09
2018-07-09T17:49:24.829Z,27.78
2018-07-09T17:51:53.913Z,27.43
2018-07-09T17:54:23.024Z,27.39
2018-07-09T17:56:52.249Z,27.27
2018-07-09T17:59:21.305Z,27.05
2018-07-09T18:01:50.420Z,26.90
2018-07-09T18:04:19.798Z,26.77
2018-07-09T18:06:49.048Z,26.79
2018-07-09T18:09:18.178Z,26.84
2018-07-09T18:11:47.403Z,26.64
2018-07-09T18:14:16.524Z,26.52
2018-07-09T18:16:45.688Z,26.64
2018-07-09T18:19:14.909Z,26.43
2018-07-09T18:21:43.993Z,26.34
2018-07-09T18:24:13.065Z,26.30
2018-07-09T18:26:42.162Z,26.36
2018-07-09T18:29:12.073Z,26.33
2018-07-09T18:31:41.208Z,26.32
2018-07-09T18:34:10.300Z,26.25
2018-07-09T18:36:39.370Z,26.20
2018-07-09T18:39:08.492Z,26.05
2018-07-09T18:41:37.676Z,25.76
2018-07-09T18:44:07.062Z,25.58
2018-07-09T18:46:36.156Z,25.63
2018-07-09T18:49:05.571Z,25.38
2018-07-09T18:51:34.838Z,25.44
2018-07-09T18:54:03.954Z,25.31
2018-07-09T18:56:33.186Z,25.07
2018-07-09T18:59:02.285Z,25.14
2018-07-09T19:01:31.441Z,25.04
2018-07-09T19:04:00.569Z,25.08
2018-07-09T19:06:44.227Z,24.88
2018-07-09T19:09:13.309Z,24.83
2018-07-09T19:11:42.721Z,24.65
2018-07-09T19:14:12.318Z,24.53
2018-07-09T19:16:53.539Z,24.52
2018-07-09T19:19:34.976Z,24.52
2018-07-09T19:22:04.332Z,24.36
2018-07-09T19:24:32.864Z,24.28
2018-07-09T19:27:01.161Z,24.13
2018-07-09T19:29:29.175Z,24.03
2018-07-09T19:31:57.200Z,24.10
2018-07-09T19:34:25.201Z,23.86
2018-07-09T19:36:53.300Z,23.84
2018-07-09T19:39:21.237Z,23.70
2018-07-09T19:41:49.261Z,23.70
2018-07-09T19:44:17.364Z,23.61
2018-07-09T19:46:45.400Z,23.54
2018-07-09T19:49:13.445Z,23.51
2018-07-09T19:51:41.432Z,23.52
2018-07-09T19:54:09.450Z,23.52
2018-07-09T19:56:37.485Z,23.41
2018-07-09T19:59:05.501Z,23.34
2018-07-09T20:01:33.505Z,23.29
2018-07-09T20:04:01.533Z,23.20
2018-07-09T20:06:29.535Z,23.17
2018-07-09T20:10:03.546Z,23.20
2018-07-09T20:12:36.845Z,23.12
2018-07-09T20:15:10.264Z,23.09
2018-07-09T20:17:42.472Z,23.00
2018-07-09T20:20:10.561Z,23.00
2018-07-09T20:22:38.613Z,23.02
2018-07-09T20:25:06.610Z,22.95
2018-07-09T20:27:34.645Z,23.02
2018-07-09T20:30:02.648Z,23.09
2018-07-09T20:32:30.786Z,22.99
2018-07-09T20:34:58.820Z,22.97
2018-07-09T20:37:26.834Z,22.94
2018-07-09T20:39:54.954Z,22.93
2018-07-09T20:42:23.107Z,22.89
2018-07-09T20:44:51.122Z,22.91
2018-07-09T20:47:19.345Z,22.94
2018-07-09T20:49:47.493Z,22.72
2018-07-09T20:52:15.485Z,22.80
2018-07-09T20:54:43.551Z,22.82
2018-07-09T20:57:11.741Z,22.83
2018-07-09T20:59:39.864Z,22.77
2018-07-09T21:02:07.866Z,22.69
2018-07-09T21:04:35.874Z,22.65
2018-07-09T21:07:04.276Z,22.81
2018-07-09T21:09:33.357Z,22.76
2018-07-09T21:12:06.654Z,22.77
2018-07-09T21:14:34.706Z,22.77
2018-07-09T21:17:02.709Z,22.67
2018-07-09T21:19:30.702Z,22.78
2018-07-09T21:21:58.767Z,22.73
2018-07-09T21:24:26.736Z,22.66
2018-07-09T21:26:54.765Z,22.67
2018-07-09T21:29:22.784Z,22.60
2018-07-09T21:31:50.801Z,22.59
2018-07-09T21:34:18.800Z,22.49
2018-07-09T21:36:46.822Z,22.55
2018-07-09T21:39:14.830Z,22.53
2018-07-09T21:41:42.865Z,22.53
2018-07-09T21:44:10.861Z,22.39
2018-07-09T21:46:38.889Z,22.44
2018-07-09T21:49:06.892Z,22.44
2018-07-09T21:51:34.912Z,22.36
2018-07-09T21:54:02.918Z,22.31
2018-07-09T21:56:30.994Z,22.33
2018-07-09T21:58:58.955Z,22.41
2018-07-09T22:01:26.983Z,22.46
2018-07-09T22:03:54.981Z,22.43
2018-07-09T22:06:23.021Z,22.31
2018-07-09T22:08:51.033Z,22.28
2018-07-09T22:11:19.079Z,22.04
2018-07-09T22:13:47.135Z,22.02
2018-07-09T22:16:15.159Z,22.00
2018-07-09T22:18:43.168Z,22.07
2018-07-09T22:21:11.172Z,22.09
2018-07-09T22:23:39.198Z,22.21
2018-07-09T22:26:07.201Z,22.25
2018-07-09T22:28:35.227Z,22.33
2018-07-09T22:31:04.281Z,22.12
2018-07-09T22:33:33.373Z,22.05
2018-07-09T22:36:02.431Z,22.04
2018-07-09T22:38:31.509Z,21.99
2018-07-09T22:41:00.541Z,21.91
2018-07-09T22:43:40.964Z,21.91
2018-07-09T22:46:10.063Z,21.73
2018-07-09T22:48:39.150Z,21.80
2018-07-09T22:51:08.284Z,21.81
2018-07-09T22:53:37.302Z,21.65
2018-07-09T22:56:11.233Z,21.67
2018-07-09T22:58:41.485Z,21.51
2018-07-09T23:01:10.529Z,21.48
2018-07-09T23:03:39.613Z,21.42
2018-07-09T23:06:08.665Z,21.33
2018-07-09T23:08:37.761Z,21.23
2018-07-09T23:12:21.074Z,21.21
2018-07-09T23:17:13.784Z,21.08
2018-07-09T23:22:20.730Z,20.95
2018-07-09T23:24:48.730Z,20.89
2018-07-09T23:27:16.753Z,20.85
2018-07-09T23:29:44.817Z,20.90
2018-07-09T23:32:12.800Z,20.77
2018-07-09T23:34:40.813Z,20.75
2018-07-09T23:37:08.804Z,20.73
2018-07-09T23:39:36.822Z,20.61
2018-07-09T23:42:04.856Z,20.52
2018-07-09T23:44:32.850Z,20.45
2018-07-09T23:47:00.862Z,20.31
2018-07-09T23:49:28.853Z,20.35
2018-07-09T23:51:56.885Z,20.50
2018-07-09T23:54:24.893Z,20.51
2018-07-09T23:57:08.393Z,20.64
2018-07-09T23:59:49.913Z,20.76
